sensor_id;sensor_type;location;lat;lon;timestamp;P1;P2;P0
70691;PMS5003;58267;51.156;17.044;2023-07-13T00:01:41;15;15;
70691;PMS5003;58267;51.156;17.044;2023-07-13T00:04:07;13;13;
70691;PMS5003;58267;51.156;17.044;2023-07-13T00:06:32;13;13;
70691;PMS5003;58267;51.156;17.044;2023-07-13T00:08:57;16;16;
70691;PMS5003;58267;51.156;17.044;2023-07-13T00:11:23;13;13;
70691;PMS5003;58267;51.156;17.044;2023-07-13T00:13:48;17;15;
70691;PMS5003;58267;51.156;17.044;2023-07-13T00:16:13;16;16;
70691;PMS5003;58267;51.156;17.044;2023-07-13T00:18:38;16;15;
70691;PMS5003;58267;51.156;17.044;2023-07-13T00:21:03;17;16;
70691;PMS5003;58267;51.156;17.044;2023-07-13T00:23:28;17;15;
70691;PMS5003;58267;51.156;17.044;2023-07-13T00:25:54;15;15;
70691;PMS5003;58267;51.156;17.044;2023-07-13T00:28:19;16;16;
70691;PMS5003;58267;51.156;17.044;2023-07-13T00:30:45;18;17;
70691;PMS5003;58267;51.156;17.044;2023-07-13T00:33:10;14;14;
70691;PMS5003;58267;51.156;17.044;2023-07-13T00:35:35;16;15;
70691;PMS5003;58267;51.156;17.044;2023-07-13T00:38:00;15;15;
70691;PMS5003;58267;51.156;17.044;2023-07-13T00:40:25;14;14;
70691;PMS5003;58267;51.156;17.044;2023-07-13T00:42:51;15;14;
70691;PMS5003;58267;51.156;17.044;2023-07-13T00:47:41;19;17;
70691;PMS5003;58267;51.156;17.044;2023-07-13T00:50:07;15;13;
70691;PMS5003;58267;51.156;17.044;2023-07-13T00:52:31;17;16;
70691;PMS5003;58267;51.156;17.044;2023-07-13T00:54:57;17;17;
70691;PMS5003;58267;51.156;17.044;2023-07-13T00:57:23;14;14;
70691;PMS5003;58267;51.156;17.044;2023-07-13T00:59:50;16;15;
70691;PMS5003;58267;51.156;17.044;2023-07-13T01:02:13;20;17;
70691;PMS5003;58267;51.156;17.044;2023-07-13T01:04:39;15;14;
70691;PMS5003;58267;51.156;17.044;2023-07-13T01:07:04;14;13;
70691;PMS5003;58267;51.156;17.044;2023-07-13T01:09:29;15;15;
70691;PMS5003;58267;51.156;17.044;2023-07-13T01:11:54;16;15;
70691;PMS5003;58267;51.156;17.044;2023-07-13T01:14:20;15;15;
70691;PMS5003;58267;51.156;17.044;2023-07-13T01:16:46;19;18;
70691;PMS5003;58267;51.156;17.044;2023-07-13T01:19:13;17;17;
70691;PMS5003;58267;51.156;17.044;2023-07-13T01:21:36;17;17;
70691;PMS5003;58267;51.156;17.044;2023-07-13T01:24:02;17;16;
70691;PMS5003;58267;51.156;17.044;2023-07-13T01:26:27;16;15;
70691;PMS5003;58267;51.156;17.044;2023-07-13T01:28:52;14;14;
70691;PMS5003;58267;51.156;17.044;2023-07-13T01:31:18;16;16;
70691;PMS5003;58267;51.156;17.044;2023-07-13T01:33:43;17;17;
70691;PMS5003;58267;51.156;17.044;2023-07-13T01:36:09;14;13;
70691;PMS5003;58267;51.156;17.044;2023-07-13T01:38:34;15;15;
70691;PMS5003;58267;51.156;17.044;2023-07-13T01:40:59;15;15;
70691;PMS5003;58267;51.156;17.044;2023-07-13T01:43:25;15;15;
70691;PMS5003;58267;51.156;17.044;2023-07-13T01:45:50;15;14;
70691;PMS5003;58267;51.156;17.044;2023-07-13T01:48:15;14;14;
70691;PMS5003;58267;51.156;17.044;2023-07-13T01:50:41;14;13;
70691;PMS5003;58267;51.156;17.044;2023-07-13T01:53:06;17;17;
70691;PMS5003;58267;51.156;17.044;2023-07-13T01:55:31;16;16;
70691;PMS5003;58267;51.156;17.044;2023-07-13T01:57:57;17;17;
70691;PMS5003;58267;51.156;17.044;2023-07-13T02:00:22;19;18;
70691;PMS5003;58267;51.156;17.044;2023-07-13T02:02:48;17;16;
70691;PMS5003;58267;51.156;17.044;2023-07-13T02:05:13;20;19;
70691;PMS5003;58267;51.156;17.044;2023-07-13T02:07:39;16;15;
70691;PMS5003;58267;51.156;17.044;2023-07-13T02:10:04;18;17;
70691;PMS5003;58267;51.156;17.044;2023-07-13T02:12:28;17;16;
70691;PMS5003;58267;51.156;17.044;2023-07-13T02:14:55;17;17;
70691;PMS5003;58267;51.156;17.044;2023-07-13T02:17:20;18;17;
70691;PMS5003;58267;51.156;17.044;2023-07-13T02:19:45;18;17;
70691;PMS5003;58267;51.156;17.044;2023-07-13T02:22:11;16;14;
70691;PMS5003;58267;51.156;17.044;2023-07-13T02:24:36;19;19;
70691;PMS5003;58267;51.156;17.044;2023-07-13T02:27:02;14;13;
70691;PMS5003;58267;51.156;17.044;2023-07-13T02:29:27;15;15;
70691;PMS5003;58267;51.156;17.044;2023-07-13T02:31:53;17;16;
70691;PMS5003;58267;51.156;17.044;2023-07-13T02:34:18;18;18;
70691;PMS5003;58267;51.156;17.044;2023-07-13T02:36:43;19;16;
70691;PMS5003;58267;51.156;17.044;2023-07-13T02:39:08;15;15;
70691;PMS5003;58267;51.156;17.044;2023-07-13T02:41:34;17;17;
70691;PMS5003;58267;51.156;17.044;2023-07-13T02:44:00;18;18;
70691;PMS5003;58267;51.156;17.044;2023-07-13T02:46:25;17;16;
70691;PMS5003;58267;51.156;17.044;2023-07-13T02:48:50;16;15;
70691;PMS5003;58267;51.156;17.044;2023-07-13T02:51:15;20;20;
70691;PMS5003;58267;51.156;17.044;2023-07-13T02:53:40;15;15;
70691;PMS5003;58267;51.156;17.044;2023-07-13T02:56:05;19;18;
70691;PMS5003;58267;51.156;17.044;2023-07-13T02:58:31;20;20;
70691;PMS5003;58267;51.156;17.044;2023-07-13T03:00:56;19;19;
70691;PMS5003;58267;51.156;17.044;2023-07-13T03:03:22;17;16;
70691;PMS5003;58267;51.156;17.044;2023-07-13T03:05:48;16;16;
70691;PMS5003;58267;51.156;17.044;2023-07-13T03:08:13;16;16;
70691;PMS5003;58267;51.156;17.044;2023-07-13T03:10:38;19;18;
70691;PMS5003;58267;51.156;17.044;2023-07-13T03:13:04;20;19;
70691;PMS5003;58267;51.156;17.044;2023-07-13T03:15:29;18;17;
70691;PMS5003;58267;51.156;17.044;2023-07-13T03:17:54;19;19;
70691;PMS5003;58267;51.156;17.044;2023-07-13T03:20:20;19;18;
70691;PMS5003;58267;51.156;17.044;2023-07-13T03:22:45;21;21;
70691;PMS5003;58267;51.156;17.044;2023-07-13T03:25:11;19;19;
70691;PMS5003;58267;51.156;17.044;2023-07-13T03:27:37;25;24;
70691;PMS5003;58267;51.156;17.044;2023-07-13T03:30:02;24;23;
70691;PMS5003;58267;51.156;17.044;2023-07-13T03:32:27;22;21;
70691;PMS5003;58267;51.156;17.044;2023-07-13T03:34:53;24;23;
70691;PMS5003;58267;51.156;17.044;2023-07-13T03:37:18;25;25;
70691;PMS5003;58267;51.156;17.044;2023-07-13T03:39:44;27;26;
70691;PMS5003;58267;51.156;17.044;2023-07-13T03:42:09;25;25;
70691;PMS5003;58267;51.156;17.044;2023-07-13T03:44:34;28;24;
70691;PMS5003;58267;51.156;17.044;2023-07-13T03:47:00;25;25;
70691;PMS5003;58267;51.156;17.044;2023-07-13T03:49:25;24;23;
70691;PMS5003;58267;51.156;17.044;2023-07-13T03:51:51;22;21;
70691;PMS5003;58267;51.156;17.044;2023-07-13T03:54:17;25;24;
70691;PMS5003;58267;51.156;17.044;2023-07-13T03:56:42;25;24;
70691;PMS5003;58267;51.156;17.044;2023-07-13T03:59:08;22;20;
70691;PMS5003;58267;51.156;17.044;2023-07-13T04:01:34;24;24;
70691;PMS5003;58267;51.156;17.044;2023-07-13T04:04:00;22;22;
70691;PMS5003;58267;51.156;17.044;2023-07-13T04:06:27;23;21;
70691;PMS5003;58267;51.156;17.044;2023-07-13T04:08:52;25;22;
70691;PMS5003;58267;51.156;17.044;2023-07-13T04:11:17;23;22;
70691;PMS5003;58267;51.156;17.044;2023-07-13T04:13:42;26;25;
70691;PMS5003;58267;51.156;17.044;2023-07-13T04:16:09;22;22;
70691;PMS5003;58267;51.156;17.044;2023-07-13T04:18:34;20;19;
70691;PMS5003;58267;51.156;17.044;2023-07-13T04:21:00;19;19;
70691;PMS5003;58267;51.156;17.044;2023-07-13T04:23:25;24;24;
70691;PMS5003;58267;51.156;17.044;2023-07-13T04:25:52;21;20;
70691;PMS5003;58267;51.156;17.044;2023-07-13T04:28:17;22;21;
70691;PMS5003;58267;51.156;17.044;2023-07-13T04:30:42;20;19;
70691;PMS5003;58267;51.156;17.044;2023-07-13T04:33:07;17;16;
70691;PMS5003;58267;51.156;17.044;2023-07-13T04:35:33;16;16;
70691;PMS5003;58267;51.156;17.044;2023-07-13T04:37:58;12;12;
70691;PMS5003;58267;51.156;17.044;2023-07-13T04:40:23;11;11;
70691;PMS5003;58267;51.156;17.044;2023-07-13T04:42:48;12;12;
70691;PMS5003;58267;51.156;17.044;2023-07-13T04:45:14;12;12;
70691;PMS5003;58267;51.156;17.044;2023-07-13T04:47:39;10;10;
70691;PMS5003;58267;51.156;17.044;2023-07-13T04:50:05;10;10;
70691;PMS5003;58267;51.156;17.044;2023-07-13T04:52:30;10;10;
70691;PMS5003;58267;51.156;17.044;2023-07-13T04:54:55;15;14;
70691;PMS5003;58267;51.156;17.044;2023-07-13T04:57:20;10;10;
70691;PMS5003;58267;51.156;17.044;2023-07-13T04:59:46;14;12;
70691;PMS5003;58267;51.156;17.044;2023-07-13T05:02:11;9;9;
70691;PMS5003;58267;51.156;17.044;2023-07-13T05:04:37;9;9;
70691;PMS5003;58267;51.156;17.044;2023-07-13T05:07:02;10;10;
70691;PMS5003;58267;51.156;17.044;2023-07-13T05:09:27;10;10;
70691;PMS5003;58267;51.156;17.044;2023-07-13T05:11:52;8;8;
70691;PMS5003;58267;51.156;17.044;2023-07-13T05:14:17;11;11;
70691;PMS5003;58267;51.156;17.044;2023-07-13T05:16:42;10;9;
70691;PMS5003;58267;51.156;17.044;2023-07-13T05:19:08;10;10;
70691;PMS5003;58267;51.156;17.044;2023-07-13T05:21:33;12;9;
70691;PMS5003;58267;51.156;17.044;2023-07-13T05:23:58;10;10;
70691;PMS5003;58267;51.156;17.044;2023-07-13T05:26:23;11;10;
70691;PMS5003;58267;51.156;17.044;2023-07-13T05:28:48;11;11;
70691;PMS5003;58267;51.156;17.044;2023-07-13T05:31:13;10;10;
70691;PMS5003;58267;51.156;17.044;2023-07-13T05:33:39;12;11;
70691;PMS5003;58267;51.156;17.044;2023-07-13T05:36:04;9;9;
70691;PMS5003;58267;51.156;17.044;2023-07-13T05:38:30;10;10;
70691;PMS5003;58267;51.156;17.044;2023-07-13T05:40:56;9;9;
70691;PMS5003;58267;51.156;17.044;2023-07-13T05:43:21;13;12;
70691;PMS5003;58267;51.156;17.044;2023-07-13T05:45:46;10;10;
70691;PMS5003;58267;51.156;17.044;2023-07-13T05:48:11;10;10;
70691;PMS5003;58267;51.156;17.044;2023-07-13T05:50:36;13;13;
70691;PMS5003;58267;51.156;17.044;2023-07-13T05:53:02;11;11;
70691;PMS5003;58267;51.156;17.044;2023-07-13T05:55:27;9;9;
70691;PMS5003;58267;51.156;17.044;2023-07-13T05:57:52;14;12;
70691;PMS5003;58267;51.156;17.044;2023-07-13T06:00:17;13;12;
70691;PMS5003;58267;51.156;17.044;2023-07-13T06:02:43;9;9;
70691;PMS5003;58267;51.156;17.044;2023-07-13T06:05:09;12;10;
70691;PMS5003;58267;51.156;17.044;2023-07-13T06:07:34;10;10;
70691;PMS5003;58267;51.156;17.044;2023-07-13T06:09:59;10;10;
70691;PMS5003;58267;51.156;17.044;2023-07-13T06:12:24;14;12;
70691;PMS5003;58267;51.156;17.044;2023-07-13T06:14:49;12;11;
70691;PMS5003;58267;51.156;17.044;2023-07-13T06:17:14;9;9;
70691;PMS5003;58267;51.156;17.044;2023-07-13T06:19:40;8;8;
70691;PMS5003;58267;51.156;17.044;2023-07-13T06:22:06;12;11;
70691;PMS5003;58267;51.156;17.044;2023-07-13T06:24:31;9;9;
70691;PMS5003;58267;51.156;17.044;2023-07-13T06:26:56;9;9;
70691;PMS5003;58267;51.156;17.044;2023-07-13T06:29:21;10;10;
70691;PMS5003;58267;51.156;17.044;2023-07-13T06:31:47;10;10;
70691;PMS5003;58267;51.156;17.044;2023-07-13T06:34:12;10;10;
70691;PMS5003;58267;51.156;17.044;2023-07-13T06:36:37;10;10;
70691;PMS5003;58267;51.156;17.044;2023-07-13T06:39:02;12;11;
70691;PMS5003;58267;51.156;17.044;2023-07-13T06:41:27;12;11;
70691;PMS5003;58267;51.156;17.044;2023-07-13T06:43:52;8;8;
70691;PMS5003;58267;51.156;17.044;2023-07-13T06:46:18;11;11;
70691;PMS5003;58267;51.156;17.044;2023-07-13T06:48:43;12;12;
70691;PMS5003;58267;51.156;17.044;2023-07-13T06:51:08;11;11;
70691;PMS5003;58267;51.156;17.044;2023-07-13T06:53:33;12;12;
70691;PMS5003;58267;51.156;17.044;2023-07-13T06:55:58;11;11;
70691;PMS5003;58267;51.156;17.044;2023-07-13T06:58:23;11;11;
70691;PMS5003;58267;51.156;17.044;2023-07-13T07:00:50;10;10;
70691;PMS5003;58267;51.156;17.044;2023-07-13T07:03:14;16;15;
70691;PMS5003;58267;51.156;17.044;2023-07-13T07:05:39;13;13;
70691;PMS5003;58267;51.156;17.044;2023-07-13T07:08:05;11;11;
70691;PMS5003;58267;51.156;17.044;2023-07-13T07:10:30;10;10;
70691;PMS5003;58267;51.156;17.044;2023-07-13T07:12:55;11;11;
70691;PMS5003;58267;51.156;17.044;2023-07-13T07:15:20;13;12;
70691;PMS5003;58267;51.156;17.044;2023-07-13T07:17:45;13;13;
70691;PMS5003;58267;51.156;17.044;2023-07-13T07:20:11;12;12;
70691;PMS5003;58267;51.156;17.044;2023-07-13T07:22:36;15;13;
70691;PMS5003;58267;51.156;17.044;2023-07-13T07:25:02;11;11;
70691;PMS5003;58267;51.156;17.044;2023-07-13T07:27:27;13;13;
70691;PMS5003;58267;51.156;17.044;2023-07-13T07:29:52;13;13;
70691;PMS5003;58267;51.156;17.044;2023-07-13T07:32:18;15;14;
70691;PMS5003;58267;51.156;17.044;2023-07-13T07:34:43;14;14;
70691;PMS5003;58267;51.156;17.044;2023-07-13T07:37:09;15;15;
70691;PMS5003;58267;51.156;17.044;2023-07-13T07:39:34;13;13;
70691;PMS5003;58267;51.156;17.044;2023-07-13T07:41:59;14;14;
70691;PMS5003;58267;51.156;17.044;2023-07-13T07:44:24;18;16;
70691;PMS5003;58267;51.156;17.044;2023-07-13T07:46:50;16;14;
70691;PMS5003;58267;51.156;17.044;2023-07-13T07:49:15;12;12;
70691;PMS5003;58267;51.156;17.044;2023-07-13T07:51:40;13;13;
70691;PMS5003;58267;51.156;17.044;2023-07-13T07:54:06;13;13;
70691;PMS5003;58267;51.156;17.044;2023-07-13T07:56:31;11;11;
70691;PMS5003;58267;51.156;17.044;2023-07-13T07:58:56;11;11;
70691;PMS5003;58267;51.156;17.044;2023-07-13T08:01:21;14;14;
70691;PMS5003;58267;51.156;17.044;2023-07-13T08:03:47;13;12;
70691;PMS5003;58267;51.156;17.044;2023-07-13T08:06:12;15;15;
70691;PMS5003;58267;51.156;17.044;2023-07-13T08:08:37;13;12;
70691;PMS5003;58267;51.156;17.044;2023-07-13T08:11:03;17;14;
70691;PMS5003;58267;51.156;17.044;2023-07-13T08:13:28;13;13;
70691;PMS5003;58267;51.156;17.044;2023-07-13T08:15:53;13;11;
70691;PMS5003;58267;51.156;17.044;2023-07-13T08:18:18;15;13;
70691;PMS5003;58267;51.156;17.044;2023-07-13T08:20:43;15;15;
70691;PMS5003;58267;51.156;17.044;2023-07-13T08:23:09;14;13;
70691;PMS5003;58267;51.156;17.044;2023-07-13T08:25:34;17;17;
70691;PMS5003;58267;51.156;17.044;2023-07-13T08:27:59;13;13;
70691;PMS5003;58267;51.156;17.044;2023-07-13T08:30:24;15;14;
70691;PMS5003;58267;51.156;17.044;2023-07-13T08:32:50;12;12;
70691;PMS5003;58267;51.156;17.044;2023-07-13T08:35:15;14;14;
70691;PMS5003;58267;51.156;17.044;2023-07-13T08:37:40;2;2;
70691;PMS5003;58267;51.156;17.044;2023-07-13T08:40:07;28;25;
70691;PMS5003;58267;51.156;17.044;2023-07-13T08:42:32;121;114;
70691;PMS5003;58267;51.156;17.044;2023-07-13T08:44:57;89;86;
70691;PMS5003;58267;51.156;17.044;2023-07-13T08:47:22;52;50;
70691;PMS5003;58267;51.156;17.044;2023-07-13T08:49:47;39;38;
70691;PMS5003;58267;51.156;17.044;2023-07-13T08:52:16;35;33;
70691;PMS5003;58267;51.156;17.044;2023-07-13T08:54:40;28;28;
70691;PMS5003;58267;51.156;17.044;2023-07-13T08:57:09;118;109;
70691;PMS5003;58267;51.156;17.044;2023-07-13T08:59:30;127;120;
70691;PMS5003;58267;51.156;17.044;2023-07-13T09:01:58;76;73;
70691;PMS5003;58267;51.156;17.044;2023-07-13T09:04:21;44;44;
70691;PMS5003;58267;51.156;17.044;2023-07-13T09:06:49;49;47;
70691;PMS5003;58267;51.156;17.044;2023-07-13T09:09:15;35;35;
70691;PMS5003;58267;51.156;17.044;2023-07-13T09:11:42;34;34;
70691;PMS5003;58267;51.156;17.044;2023-07-13T09:14:13;32;31;
70691;PMS5003;58267;51.156;17.044;2023-07-13T09:16:28;28;28;
70691;PMS5003;58267;51.156;17.044;2023-07-13T09:18:56;19;19;
70691;PMS5003;58267;51.156;17.044;2023-07-13T09:21:22;18;17;
70691;PMS5003;58267;51.156;17.044;2023-07-13T09:23:45;19;19;
70691;PMS5003;58267;51.156;17.044;2023-07-13T09:26:11;15;15;
70691;PMS5003;58267;51.156;17.044;2023-07-13T09:28:37;13;13;
70691;PMS5003;58267;51.156;17.044;2023-07-13T09:31:01;15;14;
70691;PMS5003;58267;51.156;17.044;2023-07-13T09:33:26;13;12;
70691;PMS5003;58267;51.156;17.044;2023-07-13T09:35:51;14;13;
70691;PMS5003;58267;51.156;17.044;2023-07-13T09:38:17;12;12;
70691;PMS5003;58267;51.156;17.044;2023-07-13T09:40:44;11;10;
70691;PMS5003;58267;51.156;17.044;2023-07-13T09:43:07;11;11;
70691;PMS5003;58267;51.156;17.044;2023-07-13T09:45:32;10;10;
70691;PMS5003;58267;51.156;17.044;2023-07-13T09:47:59;11;11;
70691;PMS5003;58267;51.156;17.044;2023-07-13T09:50:22;11;11;
70691;PMS5003;58267;51.156;17.044;2023-07-13T09:52:48;11;11;
70691;PMS5003;58267;51.156;17.044;2023-07-13T09:57:37;9;9;
70691;PMS5003;58267;51.156;17.044;2023-07-13T10:00:03;8;8;
70691;PMS5003;58267;51.156;17.044;2023-07-13T10:02:28;11;11;
70691;PMS5003;58267;51.156;17.044;2023-07-13T10:04:55;11;11;
70691;PMS5003;58267;51.156;17.044;2023-07-13T10:07:18;9;9;
70691;PMS5003;58267;51.156;17.044;2023-07-13T10:09:43;10;10;
70691;PMS5003;58267;51.156;17.044;2023-07-13T10:12:13;11;11;
70691;PMS5003;58267;51.156;17.044;2023-07-13T10:14:34;14;13;
70691;PMS5003;58267;51.156;17.044;2023-07-13T10:17:01;8;8;
70691;PMS5003;58267;51.156;17.044;2023-07-13T10:19:25;7;7;
70691;PMS5003;58267;51.156;17.044;2023-07-13T10:21:52;10;10;
70691;PMS5003;58267;51.156;17.044;2023-07-13T10:24:15;6;6;
70691;PMS5003;58267;51.156;17.044;2023-07-13T10:26:42;8;8;
70691;PMS5003;58267;51.156;17.044;2023-07-13T10:29:05;6;6;
70691;PMS5003;58267;51.156;17.044;2023-07-13T10:31:30;7;7;
70691;PMS5003;58267;51.156;17.044;2023-07-13T10:33:56;7;7;
70691;PMS5003;58267;51.156;17.044;2023-07-13T10:36:26;8;8;
70691;PMS5003;58267;51.156;17.044;2023-07-13T10:38:46;8;8;
70691;PMS5003;58267;51.156;17.044;2023-07-13T10:41:14;6;6;
70691;PMS5003;58267;51.156;17.044;2023-07-13T10:43:38;7;6;
70691;PMS5003;58267;51.156;17.044;2023-07-13T10:46:03;9;8;
70691;PMS5003;58267;51.156;17.044;2023-07-13T10:48:28;7;6;
70691;PMS5003;58267;51.156;17.044;2023-07-13T10:50:53;8;8;
70691;PMS5003;58267;51.156;17.044;2023-07-13T10:53:19;7;7;
70691;PMS5003;58267;51.156;17.044;2023-07-13T10:58:11;7;7;
70691;PMS5003;58267;51.156;17.044;2023-07-13T11:00:34;6;6;
70691;PMS5003;58267;51.156;17.044;2023-07-13T11:03:00;7;6;
70691;PMS5003;58267;51.156;17.044;2023-07-13T11:05:26;6;5;
70691;PMS5003;58267;51.156;17.044;2023-07-13T11:07:52;6;6;
70691;PMS5003;58267;51.156;17.044;2023-07-13T11:10:45;5;5;
70691;PMS5003;58267;51.156;17.044;2023-07-13T11:15:07;7;7;
70691;PMS5003;58267;51.156;17.044;2023-07-13T11:17:33;6;6;
70691;PMS5003;58267;51.156;17.044;2023-07-13T11:19:56;8;8;
70691;PMS5003;58267;51.156;17.044;2023-07-13T11:22:23;7;7;
70691;PMS5003;58267;51.156;17.044;2023-07-13T11:24:48;8;8;
70691;PMS5003;58267;51.156;17.044;2023-07-13T11:27:18;8;8;
70691;PMS5003;58267;51.156;17.044;2023-07-13T11:29:36;9;9;
70691;PMS5003;58267;51.156;17.044;2023-07-13T11:32:10;8;8;
70691;PMS5003;58267;51.156;17.044;2023-07-13T11:34:27;10;9;
70691;PMS5003;58267;51.156;17.044;2023-07-13T11:36:51;8;8;
70691;PMS5003;58267;51.156;17.044;2023-07-13T11:39:18;7;7;
70691;PMS5003;58267;51.156;17.044;2023-07-13T11:41:43;6;6;
70691;PMS5003;58267;51.156;17.044;2023-07-13T11:44:10;7;7;
70691;PMS5003;58267;51.156;17.044;2023-07-13T11:46:33;7;7;
70691;PMS5003;58267;51.156;17.044;2023-07-13T11:48:57;7;6;
70691;PMS5003;58267;51.156;17.044;2023-07-13T11:51:22;9;9;
70691;PMS5003;58267;51.156;17.044;2023-07-13T11:53:48;7;7;
70691;PMS5003;58267;51.156;17.044;2023-07-13T11:56:13;9;8;
70691;PMS5003;58267;51.156;17.044;2023-07-13T11:58:38;6;6;
70691;PMS5003;58267;51.156;17.044;2023-07-13T12:01:03;7;6;
70691;PMS5003;58267;51.156;17.044;2023-07-13T12:03:33;7;6;
70691;PMS5003;58267;51.156;17.044;2023-07-13T12:05:57;7;6;
70691;PMS5003;58267;51.156;17.044;2023-07-13T12:08:18;8;7;
70691;PMS5003;58267;51.156;17.044;2023-07-13T12:10:43;8;6;
70691;PMS5003;58267;51.156;17.044;2023-07-13T12:13:09;7;7;
70691;PMS5003;58267;51.156;17.044;2023-07-13T12:15:36;7;7;
70691;PMS5003;58267;51.156;17.044;2023-07-13T12:17:59;7;7;
70691;PMS5003;58267;51.156;17.044;2023-07-13T12:20:25;6;6;
70691;PMS5003;58267;51.156;17.044;2023-07-13T12:22:50;8;8;
70691;PMS5003;58267;51.156;17.044;2023-07-13T12:25:15;5;5;
70691;PMS5003;58267;51.156;17.044;2023-07-13T12:27:40;7;7;
70691;PMS5003;58267;51.156;17.044;2023-07-13T12:30:15;6;5;
70691;PMS5003;58267;51.156;17.044;2023-07-13T12:32:30;7;7;
70691;PMS5003;58267;51.156;17.044;2023-07-13T12:34:56;6;5;
70691;PMS5003;58267;51.156;17.044;2023-07-13T12:37:20;6;6;
70691;PMS5003;58267;51.156;17.044;2023-07-13T12:39:46;9;8;
70691;PMS5003;58267;51.156;17.044;2023-07-13T12:42:16;6;6;
70691;PMS5003;58267;51.156;17.044;2023-07-13T12:44:39;6;6;
70691;PMS5003;58267;51.156;17.044;2023-07-13T12:47:03;8;8;
70691;PMS5003;58267;51.156;17.044;2023-07-13T12:49:27;6;6;
70691;PMS5003;58267;51.156;17.044;2023-07-13T12:51:55;9;9;
70691;PMS5003;58267;51.156;17.044;2023-07-13T12:54:17;5;5;
70691;PMS5003;58267;51.156;17.044;2023-07-13T12:56:42;7;7;
70691;PMS5003;58267;51.156;17.044;2023-07-13T12:59:08;6;6;
70691;PMS5003;58267;51.156;17.044;2023-07-13T13:01:32;7;6;
70691;PMS5003;58267;51.156;17.044;2023-07-13T13:04:00;6;6;
70691;PMS5003;58267;51.156;17.044;2023-07-13T13:06:24;5;5;
70691;PMS5003;58267;51.156;17.044;2023-07-13T13:08:48;6;6;
70691;PMS5003;58267;51.156;17.044;2023-07-13T13:11:12;6;6;
70691;PMS5003;58267;51.156;17.044;2023-07-13T13:13:38;6;6;
70691;PMS5003;58267;51.156;17.044;2023-07-13T13:16:04;6;5;
70691;PMS5003;58267;51.156;17.044;2023-07-13T13:18:29;6;5;
70691;PMS5003;58267;51.156;17.044;2023-07-13T13:20:53;5;5;
70691;PMS5003;58267;51.156;17.044;2023-07-13T13:23:19;6;6;
70691;PMS5003;58267;51.156;17.044;2023-07-13T13:25:44;6;6;
70691;PMS5003;58267;51.156;17.044;2023-07-13T13:28:12;7;6;
70691;PMS5003;58267;51.156;17.044;2023-07-13T13:30:34;7;6;
70691;PMS5003;58267;51.156;17.044;2023-07-13T13:32:59;4;4;
70691;PMS5003;58267;51.156;17.044;2023-07-13T13:35:24;6;6;
70691;PMS5003;58267;51.156;17.044;2023-07-13T13:37:49;4;4;
70691;PMS5003;58267;51.156;17.044;2023-07-13T13:40:15;5;4;
70691;PMS5003;58267;51.156;17.044;2023-07-13T13:42:40;5;5;
70691;PMS5003;58267;51.156;17.044;2023-07-13T13:45:07;5;5;
70691;PMS5003;58267;51.156;17.044;2023-07-13T13:47:30;4;4;
70691;PMS5003;58267;51.156;17.044;2023-07-13T13:49:55;5;5;
70691;PMS5003;58267;51.156;17.044;2023-07-13T13:52:20;4;4;
70691;PMS5003;58267;51.156;17.044;2023-07-13T13:54:45;3;3;
70691;PMS5003;58267;51.156;17.044;2023-07-13T13:57:10;5;5;
70691;PMS5003;58267;51.156;17.044;2023-07-13T13:59:36;5;5;
70691;PMS5003;58267;51.156;17.044;2023-07-13T14:02:01;5;5;
70691;PMS5003;58267;51.156;17.044;2023-07-13T14:04:26;5;5;
70691;PMS5003;58267;51.156;17.044;2023-07-13T14:06:51;5;5;
70691;PMS5003;58267;51.156;17.044;2023-07-13T14:09:17;5;4;
70691;PMS5003;58267;51.156;17.044;2023-07-13T14:11:42;5;5;
70691;PMS5003;58267;51.156;17.044;2023-07-13T14:14:08;6;6;
70691;PMS5003;58267;51.156;17.044;2023-07-13T14:16:32;4;4;
70691;PMS5003;58267;51.156;17.044;2023-07-13T14:18:57;5;5;
70691;PMS5003;58267;51.156;17.044;2023-07-13T14:21:22;5;5;
70691;PMS5003;58267;51.156;17.044;2023-07-13T14:23:48;6;6;
70691;PMS5003;58267;51.156;17.044;2023-07-13T14:26:13;4;4;
70691;PMS5003;58267;51.156;17.044;2023-07-13T14:28:38;4;3;
70691;PMS5003;58267;51.156;17.044;2023-07-13T14:31:03;6;5;
70691;PMS5003;58267;51.156;17.044;2023-07-13T14:33:28;3;3;
70691;PMS5003;58267;51.156;17.044;2023-07-13T14:35:53;4;4;
70691;PMS5003;58267;51.156;17.044;2023-07-13T14:38:19;4;4;
70691;PMS5003;58267;51.156;17.044;2023-07-13T14:40:44;4;4;
70691;PMS5003;58267;51.156;17.044;2023-07-13T14:43:10;6;6;
70691;PMS5003;58267;51.156;17.044;2023-07-13T14:45:34;5;4;
70691;PMS5003;58267;51.156;17.044;2023-07-13T14:47:59;6;6;
70691;PMS5003;58267;51.156;17.044;2023-07-13T14:50:26;4;4;
70691;PMS5003;58267;51.156;17.044;2023-07-13T14:52:50;6;5;
70691;PMS5003;58267;51.156;17.044;2023-07-13T14:55:16;4;4;
70691;PMS5003;58267;51.156;17.044;2023-07-13T14:57:40;6;5;
70691;PMS5003;58267;51.156;17.044;2023-07-13T15:02:33;5;5;
70691;PMS5003;58267;51.156;17.044;2023-07-13T15:04:58;5;5;
70691;PMS5003;58267;51.156;17.044;2023-07-13T15:07:22;4;4;
70691;PMS5003;58267;51.156;17.044;2023-07-13T15:09:48;5;5;
70691;PMS5003;58267;51.156;17.044;2023-07-13T15:12:13;7;5;
70691;PMS5003;58267;51.156;17.044;2023-07-13T15:14:39;5;4;
70691;PMS5003;58267;51.156;17.044;2023-07-13T15:17:04;6;6;
70691;PMS5003;58267;51.156;17.044;2023-07-13T15:19:30;4;4;
70691;PMS5003;58267;51.156;17.044;2023-07-13T15:21:55;3;3;
70691;PMS5003;58267;51.156;17.044;2023-07-13T15:24:20;5;5;
70691;PMS5003;58267;51.156;17.044;2023-07-13T15:26:45;5;5;
70691;PMS5003;58267;51.156;17.044;2023-07-13T15:29:10;5;5;
70691;PMS5003;58267;51.156;17.044;2023-07-13T15:31:35;8;8;
70691;PMS5003;58267;51.156;17.044;2023-07-13T15:34:00;6;6;
70691;PMS5003;58267;51.156;17.044;2023-07-13T15:36:26;6;6;
70691;PMS5003;58267;51.156;17.044;2023-07-13T15:38:51;5;5;
70691;PMS5003;58267;51.156;17.044;2023-07-13T15:41:17;5;5;
70691;PMS5003;58267;51.156;17.044;2023-07-13T15:43:42;8;7;
70691;PMS5003;58267;51.156;17.044;2023-07-13T15:46:07;7;7;
70691;PMS5003;58267;51.156;17.044;2023-07-13T15:48:32;8;8;
70691;PMS5003;58267;51.156;17.044;2023-07-13T15:51:00;8;8;
70691;PMS5003;58267;51.156;17.044;2023-07-13T15:53:23;7;7;
70691;PMS5003;58267;51.156;17.044;2023-07-13T15:55:48;9;8;
70691;PMS5003;58267;51.156;17.044;2023-07-13T15:58:13;6;6;
70691;PMS5003;58267;51.156;17.044;2023-07-13T16:00:38;7;7;
70691;PMS5003;58267;51.156;17.044;2023-07-13T16:03:03;8;8;
70691;PMS5003;58267;51.156;17.044;2023-07-13T16:05:28;7;7;
70691;PMS5003;58267;51.156;17.044;2023-07-13T16:07:53;9;9;
70691;PMS5003;58267;51.156;17.044;2023-07-13T16:10:29;6;6;
70691;PMS5003;58267;51.156;17.044;2023-07-13T16:12:44;7;7;